John F Kennedy International Airport
KJFK : rendu visible

Aérodrome :











RETROUVEZ-NOUS SUR...

 
LOGIN :

S'inscrire | Disclaimer

   EN    FR    IT 

 









Légende :    VFR   VFR Marginal   IFR   IFR Intensif   IFR Très Intensif
Visi : 
Plafond : 
>= 8 km
>= 3000ft
5 à 8 km
1000 à 3000 ft
1500m à 5 km
500 à 1000 ft
800 à 1500m
200 à 500 ft
< 800m
< 200 ft
Symboles :   Orages  Brouillard  Fortes neiges  Fortes précipitations  Vent > 20 kt






- Altitude de l'aérodrome : 13 ft
- Code IATA : JFK


KJFK - John F Kennedy International

DERNIER METAR :
  • 211451Z 04012KT 10SM FEW250 16/09 A3007 RMK SLP181 T01610094 51009

METARs EXPIRÉS :
  • 211351Z 03012KT 10SM CLR 14/09 A3006 RMK SLP178 T01440094
  • 211251Z 01010KT 10SM CLR 13/10 A3006 RMK SLP178 T01280100

TAF KJFK
Valide du 21 à 13h jusqu'au 22 à 18h UTC


211255Z 2113/2218 02012KT P6SM FEW030
FM212000 05010KT P6SM FEW030
FM220000 06006KT P6SM SCT250
FM221000 06007KT P6SM BKN015
FM221500 09010KT P6SM OVC015



MET'MAP, la Météo Aéronautique d'un coup d'oeil ! - Copyright ORBIFLY Décembre 2007 - Disclaimer

ORBIFLY MET'MAP TEAM :

Programmation & Développement : Alexandra Zaïnal
Conception & Développement : Baudouin d'Aumeries
Co-Programmation & Développement : Marc-Olivier Méhu
Soutien technique & logistique : Manuel Goepfert

Contact : metmap@orbifly.com




SOURCES & CREDITS :

   NOAA       Earth
Advisory